createdAt,value
2023-06-30T00:00:33.810Z,0.00
2023-06-30T00:01:28.769Z,0.00
2023-06-30T00:02:23.871Z,0.00
2023-06-30T00:03:18.981Z,0.00
2023-06-30T00:04:13.983Z,0.00
2023-06-30T00:05:09.041Z,0.00
2023-06-30T00:06:03.965Z,0.00
2023-06-30T00:06:59.086Z,0.00
2023-06-30T00:07:54.193Z,0.00
2023-06-30T00:08:49.290Z,0.00
2023-06-30T00:09:44.273Z,0.00
2023-06-30T00:10:39.401Z,0.00
2023-06-30T00:11:34.330Z,0.00
2023-06-30T00:12:29.366Z,0.00
2023-06-30T00:13:24.578Z,0.00
2023-06-30T00:14:20.238Z,0.00
2023-06-30T00:15:15.584Z,0.00
2023-06-30T00:16:11.366Z,0.00
2023-06-30T00:17:06.499Z,0.00
2023-06-30T00:18:01.911Z,0.00
2023-06-30T00:18:57.505Z,0.00
2023-06-30T00:19:52.834Z,0.00
2023-06-30T00:20:47.877Z,0.00
2023-06-30T00:21:44.308Z,0.00
2023-06-30T00:22:39.510Z,0.00
2023-06-30T00:23:35.280Z,0.00
2023-06-30T00:24:30.577Z,0.00
2023-06-30T00:25:25.578Z,0.00
2023-06-30T00:26:21.298Z,0.00
2023-06-30T00:27:16.537Z,0.00
2023-06-30T00:28:12.329Z,0.00
2023-06-30T00:29:07.690Z,0.00
2023-06-30T00:30:02.770Z,0.00
2023-06-30T00:30:58.557Z,0.00
2023-06-30T00:31:53.687Z,0.00
2023-06-30T00:32:48.942Z,0.00
2023-06-30T00:33:45.166Z,0.00
2023-06-30T00:34:40.654Z,0.00
2023-06-30T00:35:36.118Z,0.00
2023-06-30T00:36:31.324Z,0.00
2023-06-30T00:37:26.506Z,0.00
2023-06-30T00:38:22.499Z,0.00
2023-06-30T00:39:17.720Z,0.00
2023-06-30T00:40:13.471Z,0.00
2023-06-30T00:41:08.518Z,0.00
2023-06-30T00:42:03.874Z,0.00
2023-06-30T00:42:59.609Z,0.00
2023-06-30T00:43:55.020Z,0.00
2023-06-30T00:44:50.103Z,0.00
2023-06-30T00:45:46.921Z,0.00
2023-06-30T00:46:41.603Z,0.00
2023-06-30T00:47:37.403Z,0.00
2023-06-30T00:48:32.512Z,0.00
2023-06-30T00:49:27.901Z,0.00
2023-06-30T00:50:23.538Z,0.00
2023-06-30T00:51:18.752Z,0.00
2023-06-30T00:52:14.050Z,0.00
2023-06-30T00:53:09.214Z,0.00
2023-06-30T00:54:04.702Z,0.00
2023-06-30T00:54:59.529Z,0.00
2023-06-30T00:55:54.560Z,0.00
2023-06-30T00:58:15.720Z,0.00
2023-06-30T00:59:10.920Z,0.00
2023-06-30T01:00:06.008Z,0.00
2023-06-30T01:01:01.039Z,0.00
2023-06-30T01:01:56.215Z,0.00
2023-06-30T01:02:51.295Z,0.00
2023-06-30T01:03:46.606Z,0.00
2023-06-30T01:04:41.862Z,0.00
2023-06-30T01:05:36.689Z,0.00
2023-06-30T01:06:31.847Z,0.00
2023-06-30T01:07:27.049Z,0.00
2023-06-30T01:08:22.281Z,0.00
2023-06-30T01:09:17.515Z,0.00
2023-06-30T01:10:12.550Z,0.00
2023-06-30T01:11:07.869Z,0.00
2023-06-30T01:12:03.032Z,0.00
2023-06-30T01:12:58.173Z,0.00
2023-06-30T01:13:53.379Z,0.00
2023-06-30T01:14:48.708Z,0.00
2023-06-30T01:15:43.930Z,0.00
2023-06-30T01:16:38.921Z,0.00
2023-06-30T01:17:34.134Z,0.00
2023-06-30T01:18:29.375Z,0.00
2023-06-30T01:19:24.619Z,0.00
2023-06-30T01:20:19.668Z,0.00
2023-06-30T01:21:14.888Z,0.00
2023-06-30T01:22:10.017Z,0.00
2023-06-30T01:23:05.218Z,0.00
2023-06-30T01:24:00.556Z,0.00
2023-06-30T01:24:55.589Z,0.00
2023-06-30T01:25:51.060Z,0.00
2023-06-30T01:26:46.049Z,0.00
2023-06-30T01:27:41.100Z,0.00
2023-06-30T01:28:36.441Z,0.00
2023-06-30T01:29:31.640Z,0.00
2023-06-30T01:30:26.769Z,0.00
2023-06-30T01:31:21.827Z,0.00
2023-06-30T01:32:17.012Z,0.00
2023-06-30T01:33:12.163Z,0.00
2023-06-30T01:34:07.469Z,0.00
2023-06-30T01:35:02.601Z,0.00
2023-06-30T01:35:57.759Z,0.00
2023-06-30T01:36:52.939Z,0.00
2023-06-30T01:37:48.135Z,0.00
2023-06-30T01:38:43.425Z,0.00
2023-06-30T01:39:38.657Z,0.00
2023-06-30T01:40:33.740Z,0.00
2023-06-30T01:41:28.849Z,0.00
2023-06-30T01:42:24.002Z,0.00
2023-06-30T01:43:19.190Z,0.00
2023-06-30T01:44:14.366Z,0.00
2023-06-30T01:45:09.699Z,0.00
2023-06-30T01:46:04.786Z,0.00
2023-06-30T01:46:59.915Z,0.00
2023-06-30T01:47:55.087Z,0.00
2023-06-30T01:48:50.386Z,0.00
2023-06-30T01:49:45.594Z,0.00
2023-06-30T01:50:40.621Z,0.00
2023-06-30T01:51:35.812Z,0.00
2023-06-30T01:52:30.976Z,0.00
2023-06-30T01:53:26.124Z,0.00
2023-06-30T01:54:21.338Z,0.00
2023-06-30T01:55:16.506Z,0.00
2023-06-30T01:56:11.696Z,0.00
2023-06-30T01:57:06.905Z,0.00
2023-06-30T01:58:02.081Z,0.00
2023-06-30T01:58:57.364Z,0.00
2023-06-30T01:59:52.635Z,0.00
2023-06-30T02:00:47.632Z,0.00
2023-06-30T02:01:42.883Z,0.00
2023-06-30T02:02:38.057Z,0.00
2023-06-30T02:03:33.443Z,0.00
2023-06-30T02:04:28.527Z,0.00
2023-06-30T02:05:23.707Z,0.00
2023-06-30T02:06:18.848Z,0.00
2023-06-30T02:07:14.105Z,0.00
2023-06-30T02:08:09.198Z,0.00
2023-06-30T02:09:04.592Z,0.00
2023-06-30T02:09:59.644Z,0.00
2023-06-30T02:10:54.904Z,0.00
2023-06-30T02:11:50.340Z,0.00
2023-06-30T02:12:44.816Z,0.00
2023-06-30T02:13:39.961Z,0.00
2023-06-30T02:14:35.201Z,0.00
2023-06-30T02:15:30.353Z,0.00
2023-06-30T02:16:25.891Z,0.00
2023-06-30T02:17:20.767Z,0.00
2023-06-30T02:18:15.783Z,0.00
2023-06-30T02:19:10.959Z,0.00
2023-06-30T02:20:06.134Z,0.00
2023-06-30T02:21:01.459Z,0.00
2023-06-30T02:21:56.510Z,0.00
2023-06-30T02:22:51.642Z,0.00
2023-06-30T02:23:46.800Z,0.00
2023-06-30T02:24:41.981Z,0.00
2023-06-30T02:25:37.186Z,0.00
2023-06-30T02:26:32.513Z,0.00
2023-06-30T02:27:28.172Z,0.00
2023-06-30T02:28:22.604Z,0.00
2023-06-30T02:29:17.861Z,0.00
2023-06-30T02:30:12.993Z,0.00
2023-06-30T02:31:08.390Z,0.00
2023-06-30T02:32:03.259Z,0.00
2023-06-30T02:32:58.503Z,0.00
2023-06-30T02:33:53.627Z,0.00
2023-06-30T02:34:48.863Z,0.00
2023-06-30T02:35:44.319Z,0.00
2023-06-30T02:36:39.513Z,0.00
2023-06-30T02:37:34.428Z,0.00
2023-06-30T02:38:29.593Z,1.00
2023-06-30T02:39:24.776Z,1.00
2023-06-30T02:40:19.971Z,1.00
2023-06-30T02:41:15.314Z,1.00
2023-06-30T02:42:10.373Z,0.00
2023-06-30T02:43:05.579Z,1.00
2023-06-30T02:44:00.766Z,1.00
2023-06-30T02:44:55.943Z,1.00
2023-06-30T02:45:51.153Z,2.00
2023-06-30T02:46:46.623Z,1.00
2023-06-30T02:47:41.748Z,1.00
2023-06-30T02:48:36.762Z,2.00
2023-06-30T02:49:34.023Z,1.00
2023-06-30T02:50:27.145Z,2.00
2023-06-30T02:51:22.466Z,2.00
2023-06-30T02:52:18.499Z,3.00
2023-06-30T02:53:12.644Z,3.00
2023-06-30T02:54:07.956Z,3.00
2023-06-30T02:55:03.198Z,3.00
2023-06-30T02:55:58.187Z,5.00
2023-06-30T02:56:53.585Z,5.00
2023-06-30T02:57:48.461Z,6.00
2023-06-30T02:58:43.656Z,6.00
2023-06-30T02:59:38.804Z,8.00
2023-06-30T03:00:33.956Z,8.00
2023-06-30T03:01:29.217Z,10.00
2023-06-30T03:02:24.756Z,11.00
2023-06-30T03:03:19.616Z,13.00
2023-06-30T03:04:14.962Z,13.00
2023-06-30T03:05:10.042Z,16.00
2023-06-30T03:06:05.319Z,17.00
2023-06-30T03:07:00.646Z,21.00
2023-06-30T03:07:55.736Z,23.00
2023-06-30T03:08:51.004Z,27.00
2023-06-30T03:09:46.347Z,29.00
2023-06-30T03:10:41.278Z,33.00
2023-06-30T03:11:36.561Z,35.00
2023-06-30T03:12:31.800Z,40.00
2023-06-30T03:13:26.871Z,41.00
2023-06-30T03:14:22.223Z,47.00
2023-06-30T03:15:17.327Z,50.00
2023-06-30T03:16:12.536Z,57.00
2023-06-30T03:17:08.228Z,60.00
2023-06-30T03:18:03.106Z,66.00
2023-06-30T03:18:58.455Z,64.00
2023-06-30T03:19:53.484Z,68.00
2023-06-30T03:20:48.700Z,64.00
2023-06-30T03:21:43.873Z,69.00
2023-06-30T03:22:39.416Z,70.00
2023-06-30T03:23:34.341Z,74.00
2023-06-30T03:24:29.701Z,80.00
2023-06-30T03:25:24.789Z,86.00
2023-06-30T03:26:20.126Z,94.00
2023-06-30T03:27:15.256Z,103.00
2023-06-30T03:28:10.790Z,122.00
2023-06-30T03:29:05.777Z,128.00
2023-06-30T03:30:01.053Z,129.00
2023-06-30T03:30:56.327Z,151.00
2023-06-30T03:31:51.626Z,157.00
2023-06-30T03:32:47.074Z,171.00
2023-06-30T03:33:42.230Z,187.00
2023-06-30T03:34:37.806Z,198.00
2023-06-30T03:35:32.926Z,217.00
2023-06-30T03:36:28.230Z,237.00
2023-06-30T03:37:23.624Z,259.00
2023-06-30T03:38:19.023Z,285.00
2023-06-30T03:39:14.211Z,314.00
2023-06-30T03:40:09.479Z,337.00
2023-06-30T03:41:04.849Z,363.00
2023-06-30T03:42:00.072Z,393.00
2023-06-30T03:42:55.636Z,411.00
2023-06-30T03:43:50.708Z,436.00
2023-06-30T03:44:46.388Z,470.00
2023-06-30T03:45:41.305Z,475.00
2023-06-30T03:46:36.685Z,484.00
2023-06-30T03:47:31.953Z,477.00
2023-06-30T03:48:27.217Z,485.00
2023-06-30T03:49:22.537Z,512.00
2023-06-30T03:50:17.811Z,521.00
2023-06-30T03:51:13.123Z,552.00
2023-06-30T03:52:08.500Z,540.00
2023-06-30T03:53:03.756Z,555.00
2023-06-30T03:53:59.157Z,586.00
2023-06-30T03:54:54.493Z,601.00
2023-06-30T03:55:49.726Z,649.00
2023-06-30T03:56:44.936Z,655.00
2023-06-30T03:57:40.469Z,694.00
2023-06-30T03:58:35.505Z,712.00
2023-06-30T03:59:30.845Z,718.00
2023-06-30T04:00:26.068Z,714.00
2023-06-30T04:01:21.490Z,730.00
2023-06-30T04:02:16.792Z,685.00
2023-06-30T04:03:12.432Z,721.00
2023-06-30T04:04:07.543Z,634.00
2023-06-30T04:05:03.048Z,608.00
2023-06-30T04:05:58.059Z,586.00
2023-06-30T04:06:53.415Z,602.00
2023-06-30T04:07:48.664Z,575.00
2023-06-30T04:08:44.154Z,568.00
2023-06-30T04:09:39.205Z,574.00
2023-06-30T04:10:34.647Z,578.00
2023-06-30T04:11:29.909Z,578.00
2023-06-30T04:12:25.322Z,580.00
2023-06-30T04:13:20.704Z,555.00
2023-06-30T04:14:15.954Z,523.00
2023-06-30T04:15:11.480Z,511.00
2023-06-30T04:16:06.825Z,538.00
2023-06-30T04:17:02.089Z,497.00
2023-06-30T04:17:57.408Z,498.00
2023-06-30T04:18:52.882Z,490.00
2023-06-30T04:19:48.144Z,516.00
2023-06-30T04:20:43.326Z,524.00
2023-06-30T04:21:38.684Z,538.00
2023-06-30T04:22:34.011Z,585.00
2023-06-30T04:23:29.467Z,582.00
2023-06-30T04:24:24.514Z,594.00
2023-06-30T04:25:20.004Z,619.00
2023-06-30T04:26:15.208Z,602.00
2023-06-30T04:27:10.537Z,660.00
2023-06-30T04:28:05.914Z,668.00
2023-06-30T04:29:01.258Z,676.00
2023-06-30T04:29:56.439Z,675.00
2023-06-30T04:30:51.884Z,664.00
2023-06-30T04:31:47.121Z,682.00
2023-06-30T04:32:42.505Z,699.00
2023-06-30T04:33:37.884Z,709.00
2023-06-30T04:34:33.086Z,717.00
2023-06-30T04:36:53.705Z,672.00
2023-06-30T04:37:48.946Z,681.00
2023-06-30T04:38:44.472Z,686.00
2023-06-30T04:39:39.666Z,712.00
2023-06-30T04:40:35.037Z,708.00
2023-06-30T04:41:30.438Z,715.00
2023-06-30T04:42:25.665Z,719.00
2023-06-30T04:43:20.951Z,690.00
2023-06-30T04:44:16.473Z,691.00
2023-06-30T04:45:11.618Z,658.00
2023-06-30T04:46:06.994Z,661.00
2023-06-30T04:47:02.420Z,692.00
2023-06-30T04:47:57.778Z,735.00
2023-06-30T04:48:53.176Z,842.00
2023-06-30T04:49:48.314Z,965.00
2023-06-30T04:50:43.762Z,1013.00
2023-06-30T04:51:38.975Z,1153.00
2023-06-30T04:52:34.487Z,1225.00
2023-06-30T04:53:29.837Z,1374.00
2023-06-30T04:54:25.463Z,1601.00
2023-06-30T04:55:20.634Z,1623.00
2023-06-30T04:56:17.781Z,1766.00
2023-06-30T04:57:11.446Z,1873.00
2023-06-30T04:58:06.749Z,1986.00
2023-06-30T04:59:02.162Z,2048.00
2023-06-30T04:59:57.653Z,2049.00
2023-06-30T05:00:52.767Z,2009.00
2023-06-30T05:01:48.304Z,1960.00
2023-06-30T05:02:43.606Z,1887.00
2023-06-30T05:03:39.132Z,1840.00
2023-06-30T05:04:34.395Z,1763.00
2023-06-30T05:05:29.794Z,1839.00
2023-06-30T05:06:25.139Z,1947.00
2023-06-30T05:07:20.629Z,2021.00
2023-06-30T05:08:15.915Z,2116.00
2023-06-30T05:09:11.639Z,2212.00
2023-06-30T05:10:07.204Z,2254.00
2023-06-30T05:11:02.498Z,2356.00
2023-06-30T05:11:57.880Z,2410.00
2023-06-30T05:12:53.267Z,2552.00
2023-06-30T05:13:48.825Z,2504.00
2023-06-30T05:14:44.053Z,2589.00
2023-06-30T05:15:39.499Z,2583.00
2023-06-30T05:16:35.226Z,2649.00
2023-06-30T05:17:30.559Z,2740.00
2023-06-30T05:18:25.900Z,2831.00
2023-06-30T05:19:21.483Z,2965.00
2023-06-30T05:20:16.749Z,3162.00
2023-06-30T05:21:12.162Z,3259.00
2023-06-30T05:22:07.676Z,3320.00
2023-06-30T05:23:03.167Z,3479.00
2023-06-30T05:23:58.587Z,3650.00
2023-06-30T05:24:54.148Z,3710.00
2023-06-30T05:25:49.518Z,3827.00
2023-06-30T05:26:44.752Z,3953.00
2023-06-30T05:27:40.295Z,4034.00
2023-06-30T05:28:35.679Z,4139.00
2023-06-30T05:29:31.438Z,4212.00
2023-06-30T05:30:26.674Z,4331.00
2023-06-30T05:31:22.095Z,4421.00
2023-06-30T05:32:17.529Z,4510.00
2023-06-30T05:33:12.925Z,4591.00
2023-06-30T05:34:08.286Z,4559.00
2023-06-30T05:35:04.106Z,4526.00
2023-06-30T05:35:59.372Z,4592.00
2023-06-30T05:36:54.763Z,4582.00
2023-06-30T05:37:50.182Z,4645.00
2023-06-30T05:38:45.575Z,4674.00
2023-06-30T05:39:41.000Z,4954.00
2023-06-30T05:40:36.402Z,5141.00
2023-06-30T05:41:31.888Z,5094.00
2023-06-30T05:42:27.310Z,5226.00
2023-06-30T05:43:22.685Z,5282.00
2023-06-30T05:44:18.546Z,5332.00
2023-06-30T05:45:13.976Z,5397.00
2023-06-30T05:46:09.346Z,5481.00
2023-06-30T05:47:04.646Z,5557.00
2023-06-30T05:48:00.163Z,5659.00
2023-06-30T05:48:55.441Z,5744.00
2023-06-30T05:49:51.097Z,5880.00
2023-06-30T05:50:46.590Z,5974.00
2023-06-30T05:51:41.867Z,6069.00
2023-06-30T05:52:37.246Z,6116.00
2023-06-30T05:53:32.929Z,6134.00
2023-06-30T05:54:28.293Z,6061.00
2023-06-30T05:55:23.752Z,6539.00
2023-06-30T05:56:19.277Z,6551.00
2023-06-30T05:57:14.785Z,6460.00
2023-06-30T05:58:10.170Z,7225.00
2023-06-30T05:59:05.886Z,7467.00
2023-06-30T06:00:01.339Z,7623.00
2023-06-30T06:00:56.752Z,7955.00
2023-06-30T06:01:53.767Z,8185.00
2023-06-30T06:02:47.876Z,8310.00
2023-06-30T06:03:43.287Z,8097.00
2023-06-30T06:04:38.718Z,7572.00
2023-06-30T06:05:34.359Z,7201.00
2023-06-30T06:06:29.459Z,7077.00
2023-06-30T06:07:24.850Z,7033.00
2023-06-30T06:08:20.510Z,6903.00
2023-06-30T06:09:15.879Z,7048.00
2023-06-30T06:10:11.634Z,6924.00
2023-06-30T06:11:06.871Z,7270.00
2023-06-30T06:12:02.292Z,7320.00
2023-06-30T06:12:57.672Z,7378.00
2023-06-30T06:13:53.423Z,7448.00
2023-06-30T06:14:48.629Z,6128.00
2023-06-30T06:15:44.598Z,5390.00
2023-06-30T06:16:39.700Z,5019.00
2023-06-30T06:17:35.223Z,4667.00
2023-06-30T06:18:30.585Z,4296.00
2023-06-30T06:19:26.142Z,4293.00
2023-06-30T06:20:21.689Z,4231.00
2023-06-30T06:21:16.979Z,4175.00
2023-06-30T06:22:12.456Z,3980.00
2023-06-30T06:23:07.949Z,3915.00
2023-06-30T06:24:03.391Z,3651.00
2023-06-30T06:24:59.144Z,3307.00
2023-06-30T06:25:54.406Z,2977.00
2023-06-30T06:26:49.800Z,2553.00
2023-06-30T06:27:45.179Z,2478.00
2023-06-30T06:28:40.747Z,2284.00
2023-06-30T06:29:36.083Z,2218.00
2023-06-30T06:30:31.712Z,2103.00
2023-06-30T06:31:27.101Z,2124.00
2023-06-30T06:32:22.656Z,2305.00
2023-06-30T06:33:17.916Z,2436.00
2023-06-30T06:34:13.297Z,2631.00
2023-06-30T06:35:08.780Z,2657.00
2023-06-30T06:36:04.203Z,2728.00
2023-06-30T06:36:59.468Z,2648.00
2023-06-30T06:37:55.008Z,2591.00
2023-06-30T06:38:50.268Z,2606.00
2023-06-30T06:39:45.648Z,2519.00
2023-06-30T06:40:41.199Z,2451.00
2023-06-30T06:41:36.440Z,2315.00
2023-06-30T06:42:31.811Z,2257.00
2023-06-30T06:43:27.220Z,2180.00
2023-06-30T06:44:22.622Z,2141.00
2023-06-30T06:45:18.177Z,2032.00
2023-06-30T06:46:13.703Z,1981.00
2023-06-30T06:47:08.887Z,1851.00
2023-06-30T06:48:04.349Z,1876.00
2023-06-30T06:48:59.765Z,1791.00
2023-06-30T06:49:55.078Z,1761.00
2023-06-30T06:50:50.463Z,1805.00
2023-06-30T06:51:45.878Z,1838.00
2023-06-30T06:52:41.237Z,1807.00
2023-06-30T06:53:36.565Z,1820.00
2023-06-30T06:54:31.873Z,1906.00
2023-06-30T06:55:27.291Z,1870.00
2023-06-30T06:56:22.734Z,1877.00
2023-06-30T06:57:18.036Z,1841.00
2023-06-30T06:58:13.631Z,1724.00
2023-06-30T06:59:08.857Z,1571.00
2023-06-30T07:00:05.721Z,1449.00
2023-06-30T07:00:59.660Z,1379.00
2023-06-30T07:01:55.124Z,1315.00
2023-06-30T07:02:50.593Z,1397.00
2023-06-30T07:03:45.896Z,1287.00
2023-06-30T07:04:41.181Z,1227.00
2023-06-30T07:05:36.942Z,1162.00
2023-06-30T07:06:32.080Z,1021.00
2023-06-30T07:07:27.394Z,888.00
2023-06-30T07:08:22.886Z,853.00
2023-06-30T07:09:18.206Z,817.00
2023-06-30T07:10:13.632Z,766.00
2023-06-30T07:11:09.247Z,760.00
2023-06-30T07:12:04.333Z,701.00
2023-06-30T07:12:59.702Z,757.00
2023-06-30T07:13:54.958Z,854.00
2023-06-30T07:14:50.395Z,1004.00
2023-06-30T07:15:46.023Z,1280.00
2023-06-30T07:16:41.146Z,1410.00
2023-06-30T07:17:36.755Z,1569.00
2023-06-30T07:18:32.221Z,1621.00
2023-06-30T07:19:27.369Z,1591.00
2023-06-30T07:20:22.930Z,1500.00
2023-06-30T07:21:18.306Z,1479.00
2023-06-30T07:22:13.767Z,1570.00
2023-06-30T07:23:08.994Z,1714.00
2023-06-30T07:24:04.417Z,1691.00
2023-06-30T07:24:59.878Z,1723.00
2023-06-30T07:25:55.295Z,1745.00
2023-06-30T07:26:50.783Z,1946.00
2023-06-30T07:27:46.312Z,1927.00
2023-06-30T07:28:42.074Z,2243.00
2023-06-30T07:29:37.614Z,2334.00
2023-06-30T07:30:33.187Z,2570.00
2023-06-30T07:31:28.671Z,2921.00
2023-06-30T07:32:24.124Z,3267.00
2023-06-30T07:33:19.148Z,3570.00
2023-06-30T07:34:14.141Z,3743.00
2023-06-30T07:35:09.354Z,3923.00
2023-06-30T07:36:04.224Z,3871.00
2023-06-30T07:36:59.300Z,3904.00
2023-06-30T07:37:54.313Z,3915.00
2023-06-30T07:38:49.327Z,3847.00
2023-06-30T07:39:44.373Z,3618.00
2023-06-30T07:40:51.105Z,3424.00
2023-06-30T07:41:35.603Z,3192.00
2023-06-30T07:42:30.802Z,3012.00
2023-06-30T07:43:26.184Z,2998.00
2023-06-30T07:44:21.642Z,3042.00
2023-06-30T07:45:17.309Z,3071.00
2023-06-30T07:46:12.636Z,2970.00
2023-06-30T07:47:08.059Z,2941.00
2023-06-30T07:48:03.560Z,2921.00
2023-06-30T07:48:59.637Z,2989.00
2023-06-30T07:49:54.515Z,3022.00
2023-06-30T07:51:03.674Z,3107.00
2023-06-30T07:51:46.447Z,3167.00
2023-06-30T07:52:42.155Z,3353.00
2023-06-30T07:53:36.628Z,3404.00
2023-06-30T07:54:31.977Z,3526.00
2023-06-30T07:55:27.496Z,3736.00
2023-06-30T07:56:22.434Z,3922.00
2023-06-30T07:57:17.595Z,4093.00
2023-06-30T07:58:12.620Z,4491.00
2023-06-30T07:59:07.898Z,4809.00
2023-06-30T08:00:02.930Z,5241.00
2023-06-30T08:01:03.826Z,5327.00
2023-06-30T08:01:59.266Z,5533.00
2023-06-30T08:02:54.780Z,5663.00
2023-06-30T08:03:50.283Z,5826.00
2023-06-30T08:04:45.792Z,6058.00
2023-06-30T08:05:41.123Z,6155.00
2023-06-30T08:06:36.632Z,6669.00
2023-06-30T08:07:48.904Z,6728.00
2023-06-30T08:08:28.508Z,6495.00
2023-06-30T08:09:22.753Z,6531.00
2023-06-30T08:10:18.348Z,6603.00
2023-06-30T08:11:14.058Z,6536.00
2023-06-30T08:12:13.175Z,6671.00
2023-06-30T08:13:08.604Z,6660.00
2023-06-30T08:14:04.013Z,6694.00
2023-06-30T08:14:59.422Z,6771.00
2023-06-30T08:15:55.684Z,6937.00
2023-06-30T08:16:50.748Z,7007.00
2023-06-30T08:17:49.929Z,7175.00
2023-06-30T08:18:51.365Z,7182.00
2023-06-30T08:19:48.027Z,7142.00
2023-06-30T08:20:34.588Z,6943.00
2023-06-30T08:21:29.246Z,6687.00
2023-06-30T08:22:24.672Z,6525.00
2023-06-30T08:23:20.048Z,6716.00
2023-06-30T08:24:15.516Z,6590.00
2023-06-30T08:25:10.861Z,6488.00
2023-06-30T08:26:05.898Z,6448.00
2023-06-30T08:27:00.964Z,6841.00
2023-06-30T08:27:56.108Z,7215.00
2023-06-30T08:28:51.115Z,7693.00
2023-06-30T08:29:46.367Z,8072.00
2023-06-30T08:30:41.321Z,8241.00
2023-06-30T08:31:36.740Z,8206.00
2023-06-30T08:32:31.542Z,8229.00
2023-06-30T08:33:39.162Z,8239.00
2023-06-30T08:34:22.559Z,8239.00
2023-06-30T08:35:17.820Z,8169.00
2023-06-30T08:36:13.172Z,7930.00
2023-06-30T08:37:08.727Z,7585.00
2023-06-30T08:38:03.965Z,7467.00
2023-06-30T08:38:59.360Z,7384.00
2023-06-30T08:39:54.811Z,7249.00
2023-06-30T08:40:50.193Z,7255.00
2023-06-30T08:41:45.733Z,7218.00
2023-06-30T08:42:40.996Z,6938.00
2023-06-30T08:43:36.313Z,6900.00
2023-06-30T08:44:31.878Z,6756.00
2023-06-30T08:45:27.278Z,6653.00
2023-06-30T08:46:22.812Z,6918.00
2023-06-30T08:47:18.342Z,7111.00
2023-06-30T08:48:13.540Z,7206.00
2023-06-30T08:49:08.602Z,7319.00
2023-06-30T08:50:03.719Z,7281.00
2023-06-30T08:50:58.728Z,7286.00
2023-06-30T08:51:53.899Z,7217.00
2023-06-30T08:52:48.987Z,7027.00
2023-06-30T08:53:44.102Z,6827.00
2023-06-30T08:54:39.037Z,6722.00
2023-06-30T08:55:34.127Z,6790.00
2023-06-30T08:56:30.929Z,6579.00
2023-06-30T08:57:26.013Z,6159.00
2023-06-30T08:58:25.420Z,5510.00
2023-06-30T08:59:17.107Z,4727.00
2023-06-30T09:00:11.058Z,3911.00
2023-06-30T09:01:06.238Z,3428.00
2023-06-30T09:02:01.196Z,2998.00
2023-06-30T09:02:56.399Z,2868.00
2023-06-30T09:03:51.505Z,2744.00
2023-06-30T09:04:46.736Z,2844.00
2023-06-30T09:05:43.132Z,2974.00
2023-06-30T09:06:38.352Z,2988.00
2023-06-30T09:07:34.244Z,2796.00
2023-06-30T09:08:29.725Z,2654.00
2023-06-30T09:09:25.093Z,2372.00
2023-06-30T09:10:21.004Z,2242.00
2023-06-30T09:11:16.315Z,1944.00
2023-06-30T09:12:12.315Z,1762.00
2023-06-30T09:13:07.551Z,1592.00
2023-06-30T09:14:03.048Z,1540.00
2023-06-30T09:14:58.656Z,1341.00
2023-06-30T09:15:54.057Z,1305.00
2023-06-30T09:16:49.477Z,1288.00
2023-06-30T09:17:45.868Z,1160.00
2023-06-30T09:18:41.014Z,1157.00
2023-06-30T09:19:36.776Z,1142.00
2023-06-30T09:20:32.112Z,1147.00
2023-06-30T09:21:28.090Z,1150.00
2023-06-30T09:22:52.842Z,1223.00
2023-06-30T09:23:19.827Z,1317.00
2023-06-30T09:24:14.555Z,1467.00
2023-06-30T09:25:09.914Z,1604.00
2023-06-30T09:26:05.330Z,1743.00
2023-06-30T09:27:00.986Z,2025.00
2023-06-30T09:27:56.508Z,2195.00
2023-06-30T09:28:51.874Z,2515.00
2023-06-30T09:29:48.194Z,2871.00
2023-06-30T09:30:43.706Z,3271.00
2023-06-30T09:31:39.448Z,3594.00
2023-06-30T09:32:34.860Z,3851.00
2023-06-30T09:33:30.269Z,3844.00
2023-06-30T09:34:26.195Z,3585.00
2023-06-30T09:35:21.537Z,3631.00
2023-06-30T09:36:17.376Z,3713.00
2023-06-30T09:37:12.752Z,4087.00
2023-06-30T09:38:08.272Z,4339.00
2023-06-30T09:39:03.912Z,4586.00
2023-06-30T09:39:59.439Z,5013.00
2023-06-30T09:40:54.835Z,5408.00
2023-06-30T09:41:51.218Z,5598.00
2023-06-30T09:42:48.002Z,5573.00
2023-06-30T09:43:42.520Z,5539.00
2023-06-30T09:44:37.779Z,5377.00
2023-06-30T09:45:33.224Z,5295.00
2023-06-30T09:46:28.963Z,5281.00
2023-06-30T09:47:24.427Z,5525.00
2023-06-30T09:48:20.242Z,5823.00
2023-06-30T09:49:15.515Z,6169.00
2023-06-30T09:50:11.022Z,6572.00
2023-06-30T09:51:06.748Z,6652.00
2023-06-30T09:52:02.139Z,7083.00
2023-06-30T09:52:57.651Z,7353.00
2023-06-30T09:53:53.083Z,7491.00
2023-06-30T09:54:48.807Z,7750.00
2023-06-30T09:55:44.349Z,7981.00
2023-06-30T09:56:39.767Z,8188.00
2023-06-30T09:57:35.390Z,8403.00
2023-06-30T09:58:30.981Z,8794.00
2023-06-30T09:59:26.600Z,9046.00
2023-06-30T10:00:35.509Z,9764.00
2023-06-30T10:01:18.489Z,10271.00
2023-06-30T10:02:13.438Z,10529.00
2023-06-30T10:03:08.917Z,10986.00
2023-06-30T10:04:04.434Z,11425.00
2023-06-30T10:05:00.614Z,11620.00
2023-06-30T10:05:56.100Z,12066.00
2023-06-30T10:06:52.011Z,12424.00
2023-06-30T10:07:47.502Z,13016.00
2023-06-30T10:08:43.162Z,13539.00
2023-06-30T10:09:38.648Z,14099.00
2023-06-30T10:10:34.167Z,14805.00
2023-06-30T10:11:29.782Z,15391.00
2023-06-30T10:12:25.250Z,16165.00
2023-06-30T10:13:20.714Z,17504.00
2023-06-30T10:14:15.620Z,17864.00
2023-06-30T10:15:10.686Z,17832.00
2023-06-30T10:16:05.753Z,18032.00
2023-06-30T10:17:00.962Z,18288.00
2023-06-30T10:17:56.066Z,18264.00
2023-06-30T10:18:51.039Z,18144.00
2023-06-30T10:19:45.832Z,17768.00
2023-06-30T10:20:47.877Z,17104.00
2023-06-30T10:21:36.943Z,17536.00
2023-06-30T10:22:31.039Z,16880.00
2023-06-30T10:23:26.251Z,16267.00
2023-06-30T10:24:21.194Z,15776.00
2023-06-30T10:25:16.244Z,15357.00
2023-06-30T10:26:11.333Z,14590.00
2023-06-30T10:27:06.318Z,14204.00
2023-06-30T10:28:01.614Z,13704.00
2023-06-30T10:28:56.505Z,13248.00
2023-06-30T10:29:51.621Z,12854.00
2023-06-30T10:30:46.697Z,12496.00
2023-06-30T10:31:41.757Z,12305.00
2023-06-30T10:32:36.812Z,12045.00
2023-06-30T10:33:32.074Z,11881.00
2023-06-30T10:34:26.871Z,11877.00
2023-06-30T10:35:21.939Z,12000.00
2023-06-30T10:36:20.235Z,12258.00
2023-06-30T10:37:15.326Z,12784.00
2023-06-30T10:38:10.615Z,13571.00
2023-06-30T10:39:05.397Z,15205.00
2023-06-30T10:40:00.412Z,16688.00
2023-06-30T10:40:55.494Z,17088.00
2023-06-30T10:41:50.540Z,17672.00
2023-06-30T10:42:45.564Z,17544.00
2023-06-30T10:43:40.764Z,16292.00
2023-06-30T10:44:35.852Z,15142.00
2023-06-30T10:45:32.496Z,13942.00
2023-06-30T10:46:28.027Z,12716.00
2023-06-30T10:47:23.779Z,12086.00
2023-06-30T10:48:19.272Z,11691.00
2023-06-30T10:49:14.608Z,11702.00
2023-06-30T10:50:10.802Z,11616.00
2023-06-30T10:51:06.210Z,11336.00
2023-06-30T10:52:04.156Z,11347.00
2023-06-30T10:52:57.454Z,11940.00
2023-06-30T10:53:53.460Z,12887.00
2023-06-30T10:54:48.729Z,14574.00
2023-06-30T10:55:44.622Z,16944.00
2023-06-30T10:56:40.180Z,20048.00
2023-06-30T10:57:35.581Z,21736.00
2023-06-30T10:58:31.396Z,23744.00
2023-06-30T10:59:26.788Z,22720.00
2023-06-30T11:00:22.268Z,21216.00
2023-06-30T11:01:18.663Z,20232.00
2023-06-30T11:02:14.141Z,20160.00
2023-06-30T11:03:09.975Z,20512.00
2023-06-30T11:04:07.243Z,22992.00
2023-06-30T11:05:00.963Z,26008.00
2023-06-30T11:05:55.901Z,30288.00
2023-06-30T11:06:50.966Z,33616.00
2023-06-30T11:07:45.947Z,36200.00
2023-06-30T11:08:41.079Z,42672.00
2023-06-30T11:09:36.273Z,46792.00
2023-06-30T11:10:31.126Z,65535.00
2023-06-30T11:11:26.193Z,65535.00
2023-06-30T11:12:21.320Z,65535.00
2023-06-30T11:13:16.388Z,65535.00
2023-06-30T11:14:11.719Z,65535.00
2023-06-30T11:15:06.546Z,65535.00
2023-06-30T11:16:01.722Z,65535.00
2023-06-30T11:16:56.673Z,65535.00
2023-06-30T11:17:52.033Z,61040.00
2023-06-30T11:18:46.912Z,65535.00
2023-06-30T11:19:42.243Z,65535.00
2023-06-30T11:20:37.303Z,39288.00
2023-06-30T11:21:32.769Z,41640.00
2023-06-30T11:22:28.116Z,53856.00
2023-06-30T11:23:23.919Z,51768.00
2023-06-30T11:24:19.355Z,62840.00
2023-06-30T11:25:15.139Z,46112.00
2023-06-30T11:26:10.452Z,40832.00
2023-06-30T11:27:05.667Z,42680.00
2023-06-30T11:28:00.658Z,45152.00
2023-06-30T11:28:55.760Z,53176.00
2023-06-30T11:29:50.933Z,41232.00
2023-06-30T11:30:46.419Z,33816.00